createdAt,value
2022-08-08T00:00:52.783Z,71.26
2022-08-08T00:00:54.228Z,71.23
2022-08-08T00:01:14.719Z,71.24
2022-08-08T00:02:33.022Z,71.18
2022-08-08T00:03:13.334Z,71.17
2022-08-08T00:04:00.280Z,71.41
2022-08-08T00:04:55.733Z,71.53
2022-08-08T00:06:03.392Z,71.47
2022-08-08T00:06:45.513Z,71.55
2022-08-08T00:07:39.732Z,71.57
2022-08-08T00:08:34.919Z,71.69
2022-08-08T00:09:33.179Z,71.79
2022-08-08T00:10:28.638Z,71.91
2022-08-08T00:11:20.315Z,71.99
2022-08-08T00:12:15.419Z,71.99
2022-08-08T00:13:11.607Z,72.01
2022-08-08T00:14:16.809Z,72.25
2022-08-08T00:15:03.362Z,72.45
2022-08-08T00:15:58.407Z,72.62
2022-08-08T00:16:51.118Z,72.76
2022-08-08T00:18:02.623Z,72.60
2022-08-08T00:18:42.400Z,72.56
2022-08-08T00:19:36.546Z,72.47
2022-08-08T00:20:31.610Z,72.39
2022-08-08T00:21:26.843Z,72.36
2022-08-08T00:22:22.007Z,72.40
2022-08-08T00:23:17.230Z,72.46
2022-08-08T00:24:12.253Z,72.31
2022-08-08T00:25:08.529Z,72.22
2022-08-08T00:26:02.496Z,72.13
2022-08-08T00:26:57.702Z,72.10
2022-08-08T00:27:53.014Z,72.07
2022-08-08T00:28:48.029Z,72.07
2022-08-08T00:29:45.471Z,72.26
2022-08-08T00:30:45.187Z,72.31
2022-08-08T00:32:28.905Z,72.45
2022-08-08T00:32:35.566Z,72.54
2022-08-08T00:33:25.030Z,72.66
2022-08-08T00:34:20.445Z,72.84
2022-08-08T00:35:18.447Z,72.86
2022-08-08T00:36:14.777Z,73.07
2022-08-08T00:37:08.314Z,73.16
2022-08-08T00:38:02.172Z,73.25
2022-08-08T00:38:55.976Z,73.33
2022-08-08T00:41:10.145Z,73.32
2022-08-08T00:41:10.511Z,73.47
2022-08-08T00:41:54.435Z,73.56
2022-08-08T00:42:37.087Z,73.49
2022-08-08T00:43:40.278Z,73.42
2022-08-08T00:44:26.807Z,73.40
2022-08-08T00:45:27.071Z,73.32
2022-08-08T00:46:17.276Z,73.52
2022-08-08T00:47:14.182Z,73.57
2022-08-08T00:48:29.238Z,73.69
2022-08-08T00:49:02.446Z,73.90
2022-08-08T00:49:58.906Z,74.00
2022-08-08T00:50:53.398Z,74.14
2022-08-08T00:51:46.905Z,74.18
2022-08-08T00:52:43.516Z,74.37
2022-08-08T00:53:43.756Z,74.43
2022-08-08T00:54:33.457Z,74.47
2022-08-08T00:55:36.015Z,74.29
2022-08-08T00:56:23.931Z,74.18
2022-08-08T00:57:23.773Z,74.13
2022-08-08T00:58:15.177Z,74.03
2022-08-08T00:59:08.242Z,73.89
2022-08-08T01:00:04.955Z,73.72
2022-08-08T01:00:58.550Z,73.81
2022-08-08T01:01:55.800Z,73.96
2022-08-08T01:04:00.165Z,74.03
2022-08-08T01:04:01.821Z,74.09
2022-08-08T01:04:42.310Z,74.20
2022-08-08T01:05:42.507Z,74.32
2022-08-08T01:06:30.534Z,74.39
2022-08-08T01:07:34.576Z,74.43
2022-08-08T01:08:21.712Z,74.44
2022-08-08T01:09:35.622Z,74.41
2022-08-08T01:10:12.058Z,74.47
2022-08-08T01:11:07.832Z,74.39
2022-08-08T01:12:01.631Z,74.50
2022-08-08T01:12:56.870Z,74.53
2022-08-08T01:13:52.997Z,74.58
2022-08-08T01:14:53.084Z,74.62
2022-08-08T01:15:47.227Z,74.66
2022-08-08T01:16:38.706Z,74.86
2022-08-08T01:17:51.711Z,74.78
2022-08-08T01:18:53.067Z,74.99
2022-08-08T01:19:41.889Z,74.93
2022-08-08T01:20:21.923Z,74.73
2022-08-08T01:21:14.112Z,74.64
2022-08-08T01:22:15.682Z,74.55
2022-08-08T01:23:05.313Z,74.47
2022-08-08T01:24:06.095Z,74.43
2022-08-08T01:24:55.689Z,74.66
2022-08-08T01:25:54.176Z,74.75
2022-08-08T01:26:48.951Z,74.89
2022-08-08T01:27:44.124Z,74.86
2022-08-08T01:28:37.063Z,74.81
2022-08-08T01:29:35.473Z,74.87
2022-08-08T01:30:26.692Z,74.81
2022-08-08T01:32:05.668Z,74.83
2022-08-08T01:32:21.177Z,75.04
2022-08-08T01:33:16.169Z,75.16
2022-08-08T01:34:08.419Z,75.20
2022-08-08T01:35:11.216Z,75.40
2022-08-08T01:36:01.307Z,75.53
2022-08-08T01:36:53.690Z,75.50
2022-08-08T01:37:58.145Z,75.62
2022-08-08T01:38:44.834Z,75.64
2022-08-08T01:39:41.946Z,75.46
2022-08-08T01:40:34.582Z,75.73
2022-08-08T01:41:34.287Z,75.92
2022-08-08T01:42:35.698Z,76.14
2022-08-08T01:43:20.116Z,76.20
2022-08-08T01:44:16.156Z,76.25
2022-08-08T01:45:13.973Z,76.55
2022-08-08T01:46:06.737Z,76.59
2022-08-08T01:47:05.948Z,76.65
2022-08-08T01:48:14.716Z,76.77
2022-08-08T01:48:53.437Z,76.81
2022-08-08T01:49:47.631Z,76.64
2022-08-08T01:50:43.830Z,76.64
2022-08-08T01:52:27.964Z,77.00
2022-08-08T01:53:14.879Z,77.08
2022-08-08T01:55:17.357Z,77.01
2022-08-08T01:55:46.043Z,77.04
2022-08-08T01:56:26.168Z,77.14
2022-08-08T01:56:29.877Z,77.29
2022-08-08T01:57:17.548Z,77.43
2022-08-08T01:58:13.165Z,77.52
2022-08-08T01:59:04.300Z,77.51
2022-08-08T02:00:01.803Z,77.21
2022-08-08T02:00:57.526Z,77.05
2022-08-08T02:01:54.697Z,77.22
2022-08-08T02:02:47.329Z,77.48
2022-08-08T02:03:57.570Z,77.59
2022-08-08T02:04:38.473Z,77.76
2022-08-08T02:05:56.938Z,78.03
2022-08-08T02:06:32.263Z,78.03
2022-08-08T02:07:24.565Z,77.88
2022-08-08T02:08:20.404Z,77.68
2022-08-08T02:09:17.674Z,77.58
2022-08-08T02:10:11.934Z,77.54
2022-08-08T02:11:05.953Z,77.61
2022-08-08T02:12:01.028Z,77.73
2022-08-08T02:12:57.860Z,77.79
2022-08-08T02:13:55.526Z,77.67
2022-08-08T02:14:55.714Z,77.68
2022-08-08T02:15:44.178Z,77.49
2022-08-08T02:16:38.181Z,77.33
2022-08-08T02:17:42.625Z,77.13
2022-08-08T02:18:29.356Z,76.94
2022-08-08T02:19:41.974Z,77.07
2022-08-08T02:21:02.867Z,77.07
2022-08-08T02:21:18.141Z,77.13
2022-08-08T02:22:10.042Z,77.44
2022-08-08T02:23:04.997Z,77.43
2022-08-08T02:24:00.437Z,77.30
2022-08-08T02:24:55.476Z,77.20
2022-08-08T02:25:51.887Z,77.15
2022-08-08T02:26:47.134Z,77.15
2022-08-08T02:27:43.882Z,77.29
2022-08-08T02:28:38.163Z,77.22
2022-08-08T02:29:41.661Z,77.42
2022-08-08T02:30:29.435Z,77.53
2022-08-08T02:31:58.648Z,77.47
2022-08-08T02:32:26.233Z,77.74
2022-08-08T02:33:16.690Z,77.99
2022-08-08T02:34:15.048Z,78.18
2022-08-08T02:35:11.706Z,78.31
2022-08-08T02:36:05.560Z,78.25
2022-08-08T02:36:58.842Z,78.28
2022-08-08T02:37:56.668Z,78.13
2022-08-08T02:38:50.605Z,77.99
2022-08-08T02:39:59.641Z,77.58
2022-08-08T02:40:40.319Z,77.45
2022-08-08T02:42:04.487Z,77.43
2022-08-08T02:42:38.499Z,77.37
2022-08-08T02:44:35.055Z,77.07
2022-08-08T02:44:38.560Z,77.08
2022-08-08T02:45:18.685Z,77.22
2022-08-08T02:46:11.831Z,77.45
2022-08-08T02:47:06.181Z,77.40
2022-08-08T02:48:01.429Z,77.49
2022-08-08T02:48:57.788Z,77.80
2022-08-08T02:49:52.959Z,77.95
2022-08-08T02:50:55.629Z,78.17
2022-08-08T02:51:55.678Z,77.93
2022-08-08T02:52:41.633Z,77.84
2022-08-08T02:53:35.848Z,77.64
2022-08-08T02:54:30.845Z,77.60
2022-08-08T02:55:25.907Z,77.56
2022-08-08T02:56:21.970Z,77.32
2022-08-08T02:57:17.113Z,77.21
2022-08-08T02:58:14.902Z,77.20
2022-08-08T02:59:26.204Z,77.35
2022-08-08T03:00:30.973Z,77.36
2022-08-08T03:00:58.472Z,77.32
2022-08-08T03:01:52.718Z,77.26
2022-08-08T03:02:50.156Z,77.18
2022-08-08T03:05:01.201Z,77.22
2022-08-08T03:05:02.557Z,77.26
2022-08-08T03:05:45.313Z,77.13
2022-08-08T03:06:34.896Z,77.13
2022-08-08T03:07:25.602Z,77.03
2022-08-08T03:08:23.825Z,77.04
2022-08-08T03:09:17.881Z,77.38
2022-08-08T03:10:17.954Z,77.61
2022-08-08T03:11:13.752Z,77.72
2022-08-08T03:12:05.770Z,77.62
2022-08-08T03:13:01.801Z,77.44
2022-08-08T03:15:56.684Z,77.68
2022-08-08T03:15:57.090Z,77.53
2022-08-08T03:16:00.168Z,77.69
2022-08-08T03:16:48.508Z,77.43
2022-08-08T03:17:40.643Z,77.40
2022-08-08T03:18:34.662Z,77.64
2022-08-08T03:19:29.753Z,77.90
2022-08-08T03:20:24.797Z,78.12
2022-08-08T03:21:19.852Z,78.23
2022-08-08T03:22:38.048Z,78.31
2022-08-08T03:23:10.959Z,78.28
2022-08-08T03:24:06.048Z,78.39
2022-08-08T03:25:00.184Z,78.49
2022-08-08T03:25:55.353Z,78.59
2022-08-08T03:26:50.388Z,78.86
2022-08-08T03:27:45.428Z,78.75
2022-08-08T03:28:40.427Z,78.59
2022-08-08T03:29:55.064Z,78.44
2022-08-08T03:30:32.154Z,78.54
2022-08-08T03:31:26.637Z,78.69
2022-08-08T03:32:21.559Z,78.32
2022-08-08T03:33:56.944Z,78.02
2022-08-08T03:34:14.144Z,78.06
2022-08-08T03:35:09.607Z,78.02
2022-08-08T03:36:02.615Z,77.95
2022-08-08T03:36:57.874Z,78.10
2022-08-08T03:37:59.327Z,78.00
2022-08-08T03:38:57.201Z,77.94
2022-08-08T03:40:00.147Z,77.88
2022-08-08T03:40:39.674Z,77.82
2022-08-08T03:42:12.420Z,77.91
2022-08-08T03:42:30.575Z,77.85
2022-08-08T03:43:23.804Z,77.75
2022-08-08T03:44:20.431Z,77.78
2022-08-08T03:46:03.125Z,78.00
2022-08-08T03:46:11.400Z,78.03
2022-08-08T03:47:14.148Z,78.16
2022-08-08T03:48:02.619Z,78.52
2022-08-08T03:49:55.109Z,78.46
2022-08-08T03:50:00.665Z,78.56
2022-08-08T03:50:48.703Z,78.69
2022-08-08T03:51:50.902Z,78.62
2022-08-08T03:52:45.223Z,78.64
2022-08-08T03:53:42.313Z,78.47
2022-08-08T03:54:41.711Z,78.56
2022-08-08T03:55:57.843Z,78.83
2022-08-08T03:56:31.299Z,78.89
2022-08-08T03:58:33.743Z,78.91
2022-08-08T03:58:35.108Z,79.04
2022-08-08T03:59:05.809Z,78.79
2022-08-08T04:00:07.752Z,78.61
2022-08-08T04:01:20.947Z,78.50
2022-08-08T04:02:22.940Z,78.61
2022-08-08T04:02:52.405Z,78.58
2022-08-08T04:03:58.018Z,78.76
2022-08-08T04:04:38.831Z,79.11
2022-08-08T04:05:32.823Z,79.14
2022-08-08T04:06:29.622Z,79.15
2022-08-08T04:07:23.495Z,79.08
2022-08-08T04:08:33.089Z,79.03
2022-08-08T04:09:14.642Z,78.85
2022-08-08T04:10:08.706Z,78.62
2022-08-08T04:11:11.244Z,78.58
2022-08-08T04:12:00.789Z,78.63
2022-08-08T04:12:54.012Z,78.47
2022-08-08T04:14:24.819Z,78.17
2022-08-08T04:14:45.509Z,78.06
2022-08-08T04:15:39.294Z,77.95
2022-08-08T04:16:38.894Z,78.13
2022-08-08T04:17:57.836Z,78.37
2022-08-08T04:18:27.588Z,78.50
2022-08-08T04:19:25.013Z,78.55
2022-08-08T04:20:17.394Z,78.43
2022-08-08T04:21:13.010Z,78.47
2022-08-08T04:22:08.096Z,78.39
2022-08-08T04:23:03.564Z,78.33
2022-08-08T04:24:18.944Z,78.31
2022-08-08T04:24:54.232Z,78.21
2022-08-08T04:25:48.193Z,77.86
2022-08-08T04:26:57.401Z,77.65
2022-08-08T04:28:03.530Z,77.49
2022-08-08T04:28:37.319Z,77.64
2022-08-08T04:29:36.821Z,77.65
2022-08-08T04:30:24.800Z,77.69
2022-08-08T04:31:30.785Z,77.63
2022-08-08T04:32:30.260Z,77.84
2022-08-08T04:33:12.404Z,77.89
2022-08-08T04:34:05.999Z,78.02
2022-08-08T04:35:01.191Z,77.90
2022-08-08T04:35:56.207Z,77.68
2022-08-08T04:36:51.508Z,77.83
2022-08-08T04:37:46.803Z,77.88
2022-08-08T04:38:43.013Z,77.87
2022-08-08T04:40:05.664Z,77.81
2022-08-08T04:40:34.605Z,78.00
2022-08-08T04:41:36.596Z,78.27
2022-08-08T04:42:23.926Z,78.47
2022-08-08T04:43:17.832Z,78.79
2022-08-08T04:44:12.940Z,78.82
2022-08-08T04:45:08.065Z,78.89
2022-08-08T04:46:03.075Z,78.93
2022-08-08T04:46:58.187Z,78.78
2022-08-08T04:47:53.162Z,78.65
2022-08-08T04:48:48.403Z,78.68
2022-08-08T04:50:01.324Z,78.45
2022-08-08T04:50:40.163Z,78.21
2022-08-08T04:51:55.381Z,78.04
2022-08-08T04:52:35.018Z,77.93
2022-08-08T04:54:27.173Z,77.95
2022-08-08T04:54:39.110Z,78.07
2022-08-08T04:55:16.600Z,78.29
2022-08-08T04:56:14.922Z,78.20
2022-08-08T04:57:10.271Z,78.30
2022-08-08T04:58:09.492Z,78.01
2022-08-08T04:59:02.218Z,77.78
2022-08-08T04:59:58.033Z,77.77
2022-08-08T05:00:52.212Z,77.60
2022-08-08T05:01:48.558Z,77.50
2022-08-08T05:02:42.809Z,77.56
2022-08-08T05:04:10.628Z,77.35
2022-08-08T05:04:34.580Z,77.18
2022-08-08T05:05:44.942Z,77.08
2022-08-08T05:06:29.023Z,77.03
2022-08-08T05:07:19.821Z,77.03
2022-08-08T05:08:15.211Z,76.94
2022-08-08T05:09:10.768Z,76.92
2022-08-08T05:10:06.804Z,77.08
2022-08-08T05:11:01.563Z,77.01
2022-08-08T05:11:57.213Z,77.05
2022-08-08T05:13:00.036Z,77.18
2022-08-08T05:13:57.823Z,77.36
2022-08-08T05:14:42.303Z,77.57
2022-08-08T05:16:50.859Z,77.64
2022-08-08T05:16:52.272Z,77.73
2022-08-08T05:17:27.352Z,77.50
2022-08-08T05:18:22.471Z,77.26
2022-08-08T05:20:10.531Z,77.04
2022-08-08T05:20:15.252Z,76.94
2022-08-08T05:21:08.470Z,76.84
2022-08-08T05:22:04.551Z,76.65
2022-08-08T05:22:58.602Z,76.76
2022-08-08T05:24:04.337Z,76.66
2022-08-08T05:24:49.808Z,76.55
2022-08-08T05:25:43.980Z,76.42
2022-08-08T05:26:39.454Z,76.40
2022-08-08T05:27:41.393Z,76.27
2022-08-08T05:28:56.357Z,76.42
2022-08-08T05:29:29.080Z,76.48
2022-08-08T05:30:28.027Z,76.41
2022-08-08T05:32:03.146Z,76.32
2022-08-08T05:32:13.151Z,76.25
2022-08-08T05:33:08.931Z,76.25
2022-08-08T05:34:04.392Z,76.01
2022-08-08T05:35:04.732Z,75.78
2022-08-08T05:35:56.190Z,75.64
2022-08-08T05:36:50.859Z,75.50
2022-08-08T05:37:53.800Z,75.39
2022-08-08T05:38:42.632Z,75.39
2022-08-08T05:39:37.032Z,75.32
2022-08-08T05:40:32.379Z,75.39
2022-08-08T05:41:28.204Z,75.12
2022-08-08T05:42:29.307Z,75.14
2022-08-08T05:43:39.260Z,74.96
2022-08-08T05:44:15.003Z,74.81
2022-08-08T05:45:10.385Z,74.94
2022-08-08T05:46:07.823Z,74.50
2022-08-08T05:47:02.759Z,74.12
2022-08-08T05:48:00.466Z,73.94
2022-08-08T05:48:52.659Z,73.83
2022-08-08T05:49:53.986Z,73.61
2022-08-08T05:50:40.472Z,73.67
2022-08-08T05:51:48.818Z,73.78
2022-08-08T05:52:32.140Z,73.42
2022-08-08T05:53:54.150Z,73.31
2022-08-08T05:54:27.101Z,73.31
2022-08-08T05:55:15.663Z,73.29
2022-08-08T05:56:15.247Z,73.18
2022-08-08T05:57:05.864Z,72.73
2022-08-08T05:58:05.794Z,72.57
2022-08-08T05:59:03.766Z,72.48
2022-08-08T06:00:01.249Z,72.49
2022-08-08T06:00:57.003Z,72.42
2022-08-08T06:01:55.534Z,72.46
2022-08-08T06:02:43.863Z,72.18
2022-08-08T06:03:36.903Z,72.06
2022-08-08T06:04:32.246Z,71.96
2022-08-08T06:05:35.331Z,71.75
2022-08-08T06:06:23.361Z,71.55
2022-08-08T06:07:18.531Z,71.50
2022-08-08T06:08:28.751Z,71.40
2022-08-08T06:09:58.482Z,71.40
2022-08-08T06:10:06.439Z,71.18
2022-08-08T06:11:00.236Z,71.08
2022-08-08T06:11:54.815Z,70.77
2022-08-08T06:12:50.322Z,70.78
2022-08-08T06:13:47.400Z,70.61
2022-08-08T06:14:40.813Z,70.39
2022-08-08T06:15:51.196Z,70.07
2022-08-08T06:16:31.914Z,69.90
2022-08-08T06:17:50.423Z,69.92
2022-08-08T06:18:22.634Z,69.78
2022-08-08T06:19:16.627Z,69.50
2022-08-08T06:20:11.610Z,69.42
2022-08-08T06:21:27.939Z,69.15
2022-08-08T06:22:32.269Z,69.14
2022-08-08T06:22:58.080Z,69.10
2022-08-08T06:24:03.487Z,69.21
2022-08-08T06:24:53.345Z,69.19
2022-08-08T06:26:35.008Z,68.80
2022-08-08T06:26:44.033Z,68.37
2022-08-08T06:27:35.424Z,68.19
2022-08-08T06:28:29.922Z,68.04
2022-08-08T06:29:48.901Z,67.55
2022-08-08T06:30:26.306Z,67.40
2022-08-08T06:31:16.958Z,67.15
2022-08-08T06:32:15.246Z,66.79
2022-08-08T06:33:09.305Z,66.83
2022-08-08T06:34:28.014Z,66.82
2022-08-08T06:36:00.587Z,66.48
2022-08-08T06:36:06.869Z,66.41
2022-08-08T06:36:53.350Z,65.76
2022-08-08T06:37:43.962Z,65.86
2022-08-08T06:38:37.947Z,65.68
2022-08-08T06:39:34.172Z,65.42
2022-08-08T06:40:28.970Z,65.39
2022-08-08T06:41:24.386Z,64.89
2022-08-08T06:42:20.984Z,64.70
2022-08-08T06:43:15.465Z,64.61
2022-08-08T06:44:12.213Z,64.47
2022-08-08T06:45:07.832Z,63.96
2022-08-08T06:46:01.852Z,63.46
2022-08-08T06:46:57.299Z,63.73
2022-08-08T06:48:00.667Z,62.76
2022-08-08T06:48:49.113Z,62.75
2022-08-08T06:49:55.484Z,62.54
2022-08-08T06:50:39.743Z,61.75
2022-08-08T06:51:49.069Z,60.48
2022-08-08T06:52:29.808Z,60.76
2022-08-08T06:53:23.944Z,60.77
2022-08-08T06:54:18.979Z,60.62
2022-08-08T06:55:14.142Z,60.82
2022-08-08T06:56:09.123Z,60.70
2022-08-08T06:57:06.607Z,59.99
2022-08-08T06:58:04.077Z,59.21
2022-08-08T06:58:57.595Z,59.60
2022-08-08T07:00:10.914Z,58.87
2022-08-08T07:00:49.603Z,58.77
2022-08-08T07:02:16.849Z,59.16
2022-08-08T07:02:45.147Z,58.94
2022-08-08T07:03:52.579Z,58.24
2022-08-08T07:04:38.082Z,58.24
2022-08-08T07:05:29.895Z,57.97
2022-08-08T07:06:22.343Z,57.64
2022-08-08T07:07:17.818Z,57.32
2022-08-08T07:08:13.259Z,57.45
2022-08-08T07:09:08.632Z,56.95
2022-08-08T07:10:08.161Z,56.21
2022-08-08T07:10:59.575Z,56.71
2022-08-08T07:11:54.927Z,56.51
2022-08-08T07:12:50.379Z,55.84
2022-08-08T07:14:00.853Z,55.67
2022-08-08T07:14:42.913Z,55.61
2022-08-08T07:16:05.161Z,56.54
2022-08-08T07:16:33.557Z,56.15
2022-08-08T07:17:40.343Z,56.42
2022-08-08T07:18:37.028Z,56.08
2022-08-08T07:19:18.818Z,55.92
2022-08-08T07:20:15.431Z,55.43
2022-08-08T07:21:18.624Z,55.36
2022-08-08T07:22:18.478Z,54.70
2022-08-08T07:23:01.563Z,54.90
2022-08-08T07:24:00.876Z,55.34
2022-08-08T07:24:51.695Z,55.73
2022-08-08T07:25:54.632Z,55.10
2022-08-08T07:26:42.658Z,54.70
2022-08-08T07:27:47.365Z,53.94
2022-08-08T07:28:34.422Z,53.56
2022-08-08T07:30:00.870Z,53.66
2022-08-08T07:30:26.484Z,53.60
2022-08-08T07:31:19.943Z,54.52
2022-08-08T07:32:15.744Z,54.68
2022-08-08T07:33:10.759Z,53.83
2022-08-08T07:34:09.259Z,53.28
2022-08-08T07:35:02.865Z,54.01
2022-08-08T07:35:55.931Z,54.51
2022-08-08T07:36:50.939Z,54.97
2022-08-08T07:38:05.020Z,54.50
2022-08-08T07:38:42.375Z,54.24
2022-08-08T07:39:45.843Z,54.15
2022-08-08T07:40:32.750Z,53.74
2022-08-08T07:41:26.126Z,53.99
2022-08-08T07:42:21.231Z,54.14
2022-08-08T07:43:35.261Z,53.49
2022-08-08T07:44:33.489Z,53.63
2022-08-08T07:45:09.287Z,54.03
2022-08-08T07:46:17.886Z,53.91
2022-08-08T07:47:00.153Z,53.98
2022-08-08T07:47:54.568Z,53.20
2022-08-08T07:48:50.132Z,52.69
2022-08-08T07:49:46.249Z,52.63
2022-08-08T07:50:41.225Z,52.66
2022-08-08T07:51:45.392Z,52.65
2022-08-08T07:52:32.719Z,52.93
2022-08-08T07:54:02.256Z,53.43
2022-08-08T07:54:26.850Z,53.68
2022-08-08T07:55:16.789Z,53.26
2022-08-08T07:56:11.796Z,53.24
2022-08-08T07:57:09.001Z,53.49
2022-08-08T07:58:01.789Z,54.09
2022-08-08T07:59:00.023Z,54.28
2022-08-08T07:59:55.481Z,54.73
2022-08-08T08:00:51.092Z,54.93
2022-08-08T08:02:36.961Z,53.23
2022-08-08T08:02:42.917Z,52.74
2022-08-08T08:03:41.502Z,52.86
2022-08-08T08:04:33.727Z,53.03
2022-08-08T08:05:33.606Z,53.03
2022-08-08T08:06:27.264Z,52.74
2022-08-08T08:07:26.030Z,52.09
2022-08-08T08:08:17.048Z,51.40
2022-08-08T08:09:11.502Z,51.30
2022-08-08T08:10:07.104Z,51.54
2022-08-08T08:11:03.542Z,51.43
2022-08-08T08:11:57.881Z,49.90
2022-08-08T08:12:52.885Z,50.27
2022-08-08T08:14:09.957Z,50.53
2022-08-08T08:14:43.961Z,51.23
2022-08-08T08:15:38.088Z,51.20
2022-08-08T08:16:33.080Z,51.57
2022-08-08T08:17:36.521Z,51.62
2022-08-08T08:18:31.755Z,51.51
2022-08-08T08:19:19.691Z,51.72
2022-08-08T08:20:13.439Z,51.69
2022-08-08T08:21:13.286Z,51.71
2022-08-08T08:22:07.824Z,52.03
2022-08-08T08:22:58.941Z,51.63
2022-08-08T08:23:54.519Z,51.89
2022-08-08T08:24:51.027Z,51.97
2022-08-08T08:25:55.135Z,51.57
2022-08-08T08:26:46.970Z,51.40
2022-08-08T08:27:37.492Z,50.92
2022-08-08T08:28:32.079Z,50.49
2022-08-08T08:29:28.470Z,49.99
2022-08-08T08:30:25.073Z,49.76
2022-08-08T08:31:18.551Z,49.05
2022-08-08T08:32:24.069Z,48.85
2022-08-08T08:33:11.005Z,48.14
2022-08-08T08:34:03.788Z,48.91
2022-08-08T08:35:00.939Z,49.48
2022-08-08T08:36:19.307Z,49.84
2022-08-08T08:36:54.926Z,50.26
2022-08-08T08:38:12.788Z,51.01
2022-08-08T08:38:49.462Z,51.28
2022-08-08T08:39:59.994Z,51.65
2022-08-08T08:40:32.955Z,51.74
2022-08-08T08:41:27.882Z,51.22
2022-08-08T08:42:29.169Z,50.60
2022-08-08T08:43:18.594Z,50.23
2022-08-08T08:44:14.305Z,49.23
2022-08-08T08:45:10.361Z,49.22
2022-08-08T08:46:05.754Z,49.46
2022-08-08T08:46:58.828Z,50.16
2022-08-08T08:47:53.572Z,49.62
2022-08-08T08:48:49.713Z,48.47
2022-08-08T08:49:43.085Z,48.33
2022-08-08T08:50:40.885Z,48.83
2022-08-08T08:51:33.930Z,47.71
2022-08-08T08:52:29.384Z,47.77
2022-08-08T08:53:56.785Z,47.07
2022-08-08T08:54:25.444Z,47.62
2022-08-08T08:55:15.263Z,47.30
2022-08-08T08:56:10.496Z,46.67
2022-08-08T08:57:15.782Z,46.46
2022-08-08T08:58:02.927Z,46.31
2022-08-08T08:58:57.042Z,46.17
2022-08-08T08:59:59.374Z,46.66
2022-08-08T09:01:08.642Z,46.12
2022-08-08T09:01:45.386Z,46.57
2022-08-08T09:02:41.149Z,45.10
2022-08-08T09:03:46.752Z,45.21
2022-08-08T09:04:38.902Z,45.02
2022-08-08T09:05:49.103Z,45.34
2022-08-08T09:06:28.186Z,45.63
2022-08-08T09:07:18.970Z,45.84
2022-08-08T09:08:18.307Z,46.00
2022-08-08T09:09:26.742Z,45.62
2022-08-08T09:10:05.444Z,44.90
2022-08-08T09:11:00.016Z,44.84
2022-08-08T09:12:02.271Z,45.15
2022-08-08T09:12:51.206Z,45.06
2022-08-08T09:13:45.317Z,45.31
2022-08-08T09:14:43.010Z,45.10
2022-08-08T09:15:41.628Z,45.31
2022-08-08T09:16:33.146Z,45.49
2022-08-08T09:17:41.248Z,46.02
2022-08-08T09:18:24.403Z,46.48
2022-08-08T09:21:53.971Z,44.67
2022-08-08T09:21:58.982Z,46.00
2022-08-08T09:21:59.117Z,45.15
2022-08-08T09:22:07.294Z,46.54
2022-08-08T09:23:01.668Z,46.79
2022-08-08T09:23:57.320Z,47.07
2022-08-08T09:24:53.228Z,47.19
2022-08-08T09:25:57.801Z,46.95
2022-08-08T09:26:49.683Z,46.37
2022-08-08T09:27:57.607Z,45.39
2022-08-08T09:28:38.563Z,45.71
2022-08-08T09:29:32.227Z,46.06
2022-08-08T09:30:28.318Z,45.95
2022-08-08T09:31:23.916Z,45.96
2022-08-08T09:32:19.417Z,45.52
2022-08-08T09:34:05.995Z,45.33
2022-08-08T09:34:31.196Z,44.38
2022-08-08T09:35:08.481Z,44.20
2022-08-08T09:36:01.673Z,44.60
2022-08-08T09:37:29.127Z,43.56
2022-08-08T09:38:01.061Z,42.80
2022-08-08T09:38:53.369Z,42.44
2022-08-08T09:39:44.254Z,43.28
2022-08-08T09:40:45.505Z,43.72
2022-08-08T09:42:14.122Z,44.27
2022-08-08T09:42:31.738Z,44.78
2022-08-08T09:43:40.826Z,45.29
2022-08-08T09:44:29.856Z,44.94
2022-08-08T09:45:53.986Z,44.82
2022-08-08T09:46:16.942Z,44.03
2022-08-08T09:47:25.923Z,44.05
2022-08-08T09:48:17.861Z,42.00
2022-08-08T09:49:18.298Z,41.49
2022-08-08T09:49:55.984Z,40.72
2022-08-08T09:50:51.473Z,40.68
2022-08-08T09:52:06.448Z,40.58
2022-08-08T09:52:58.497Z,41.45
2022-08-08T09:54:03.383Z,41.39
2022-08-08T09:54:37.697Z,42.07
2022-08-08T09:56:03.100Z,42.40
2022-08-08T09:56:27.654Z,42.11
2022-08-08T09:57:19.582Z,42.28
2022-08-08T09:58:20.228Z,42.39
2022-08-08T09:59:40.378Z,41.99
2022-08-08T10:00:34.051Z,41.37
2022-08-08T10:01:02.837Z,41.04
2022-08-08T10:02:03.043Z,40.89
2022-08-08T10:02:54.032Z,41.60
2022-08-08T10:03:56.248Z,40.96
2022-08-08T10:04:47.835Z,40.56
2022-08-08T10:05:39.857Z,40.81
2022-08-08T10:06:35.944Z,41.01
2022-08-08T10:07:36.044Z,41.06
2022-08-08T10:08:30.621Z,41.05
2022-08-08T10:09:21.850Z,40.58
2022-08-08T10:10:17.531Z,40.53
2022-08-08T10:12:26.755Z,39.58
2022-08-08T10:12:28.317Z,39.86
2022-08-08T10:13:14.018Z,39.88
2022-08-08T10:14:00.800Z,39.66
2022-08-08T10:14:56.317Z,40.21
2022-08-08T10:16:01.025Z,40.30
2022-08-08T10:16:46.974Z,40.23
2022-08-08T10:18:05.899Z,40.31
2022-08-08T10:18:36.953Z,40.62
2022-08-08T10:19:38.327Z,40.70
2022-08-08T10:20:40.547Z,40.53
2022-08-08T10:21:32.926Z,40.74
2022-08-08T10:22:20.562Z,40.17
2022-08-08T10:23:14.446Z,40.07
2022-08-08T10:24:12.191Z,40.17
2022-08-08T10:25:15.714Z,39.51
2022-08-08T10:26:03.248Z,39.76
2022-08-08T10:26:59.493Z,39.66
2022-08-08T10:27:52.259Z,38.76
2022-08-08T10:28:53.670Z,39.40
2022-08-08T10:29:58.949Z,39.01
2022-08-08T10:30:41.281Z,39.57
2022-08-08T10:31:47.514Z,39.65
2022-08-08T10:32:32.824Z,38.97
2022-08-08T10:33:38.519Z,38.81
2022-08-08T10:34:23.416Z,38.61
2022-08-08T10:35:20.389Z,38.99
2022-08-08T10:36:22.112Z,39.11
2022-08-08T10:37:10.544Z,38.80
2022-08-08T10:38:05.424Z,39.43
2022-08-08T10:39:00.377Z,39.95
2022-08-08T10:39:56.421Z,39.01
2022-08-08T10:40:51.812Z,38.88
2022-08-08T10:41:58.854Z,38.92
2022-08-08T10:42:45.099Z,38.71
2022-08-08T10:43:38.789Z,38.00
2022-08-08T10:44:34.038Z,38.02
2022-08-08T10:45:29.950Z,38.06
2022-08-08T10:46:30.299Z,38.04
2022-08-08T10:47:21.592Z,37.77
2022-08-08T10:48:16.715Z,38.09
2022-08-08T10:50:00.066Z,38.78
2022-08-08T10:50:09.126Z,38.34
2022-08-08T10:51:03.793Z,38.12
2022-08-08T10:51:59.249Z,38.28
2022-08-08T10:52:54.933Z,38.77
2022-08-08T10:53:58.227Z,38.54
2022-08-08T10:54:47.097Z,38.30
2022-08-08T10:55:46.605Z,38.08
2022-08-08T10:56:43.115Z,38.41
2022-08-08T10:57:45.199Z,38.58
2022-08-08T10:58:29.339Z,38.96
2022-08-08T10:59:24.108Z,39.63
2022-08-08T11:00:20.633Z,39.74
2022-08-08T11:01:15.791Z,40.43
2022-08-08T11:02:10.315Z,40.27
2022-08-08T11:03:05.155Z,40.07
2022-08-08T11:04:02.344Z,39.93
2022-08-08T11:04:55.345Z,39.49
2022-08-08T11:05:51.772Z,38.65
2022-08-08T11:06:47.446Z,38.03
2022-08-08T11:08:30.543Z,38.36
2022-08-08T11:08:41.976Z,37.42
2022-08-08T11:09:32.565Z,37.51
2022-08-08T11:10:28.534Z,38.64
2022-08-08T11:11:59.979Z,38.03
2022-08-08T11:12:18.778Z,37.63
2022-08-08T11:13:28.482Z,37.23
2022-08-08T11:14:12.331Z,37.21
2022-08-08T11:15:05.688Z,37.55
2022-08-08T11:16:01.494Z,37.70
2022-08-08T11:16:56.257Z,37.21
2022-08-08T11:18:00.298Z,37.48
2022-08-08T11:18:46.377Z,37.07
2022-08-08T11:19:40.405Z,36.81
2022-08-08T11:20:36.431Z,36.82
2022-08-08T11:21:34.873Z,36.62
2022-08-08T11:22:26.893Z,36.44
2022-08-08T11:23:20.590Z,36.58
2022-08-08T11:24:15.654Z,37.33
2022-08-08T11:25:13.840Z,36.48
2022-08-08T11:26:05.704Z,36.39
2022-08-08T11:27:00.759Z,36.26
2022-08-08T11:27:56.827Z,36.31
2022-08-08T11:28:50.899Z,36.66
2022-08-08T11:30:18.601Z,36.71
2022-08-08T11:30:50.371Z,36.69
2022-08-08T11:31:46.563Z,36.11
2022-08-08T11:32:36.353Z,35.65
2022-08-08T11:33:53.461Z,35.26
2022-08-08T11:34:34.328Z,35.95
2022-08-08T11:35:27.071Z,36.86
2022-08-08T11:36:15.755Z,37.47
2022-08-08T11:37:15.422Z,37.99
2022-08-08T11:38:39.390Z,38.37
2022-08-08T11:39:00.902Z,37.46
2022-08-08T11:39:57.458Z,38.14
2022-08-08T11:40:52.725Z,38.44
2022-08-08T11:41:45.016Z,37.96
2022-08-08T11:42:43.509Z,37.62
2022-08-08T11:43:42.200Z,36.89
2022-08-08T11:44:33.688Z,35.92
2022-08-08T11:45:29.711Z,36.44
2022-08-08T11:46:24.666Z,36.62
2022-08-08T11:47:18.773Z,36.61
2022-08-08T11:48:18.140Z,35.84
2022-08-08T11:49:10.486Z,35.70
2022-08-08T11:50:04.688Z,35.67
2022-08-08T11:51:01.572Z,35.87
2022-08-08T11:51:57.069Z,36.41